Time;durP1;ratioP1;P1;durP2;ratioP2;P2;SDS_P1;SDS_P2;PMS_P1;PMS_P2;Temp;Humidity;BMP_temperature;BMP_pressure;BME280_temperature;BME280_humidity;BME280_pressure;Samples;Min_cycle;Max_cycle;Signal;HPM_P1;HPM_P2
2022/07/30 00:00:10;;;;;;;5.42;2.92;;;;;;;18.52;88.04;98197.53;1774861;80;20959;-65
2022/07/30 00:02:38;;;;;;;6.40;3.42;;;;;;;18.50;88.10;98200.34;1774940;80;20887;-65
2022/07/30 00:05:06;;;;;;;4.30;3.02;;;;;;;18.48;88.15;98196.63;1775077;80;21365;-65
2022/07/30 00:07:34;;;;;;;5.35;3.45;;;;;;;18.46;88.19;98196.17;1775214;80;20969;-65
2022/07/30 00:10:03;;;;;;;10.70;3.50;;;;;;;18.45;88.27;98197.26;1774896;80;21126;-65
2022/07/30 00:12:31;;;;;;;4.45;2.92;;;;;;;18.46;88.33;98196.17;1774877;80;20992;-65
2022/07/30 00:14:59;;;;;;;5.25;3.40;;;;;;;18.46;88.40;98190.75;1775007;80;20973;-65
2022/07/30 00:17:27;;;;;;;5.87;3.05;;;;;;;18.45;88.44;98186.41;1775098;80;21393;-65
2022/07/30 00:19:55;;;;;;;7.85;3.60;;;;;;;18.48;88.50;98191.20;1774912;80;20862;-65
2022/07/30 00:22:22;;;;;;;5.15;3.30;;;;;;;18.50;88.47;98190.30;1775015;80;21158;-65
2022/07/30 00:24:49;;;;;;;5.15;3.30;;;;;;;18.51;88.48;98184.31;1774856;80;21091;-65
2022/07/30 00:27:15;;;;;;;5.35;3.17;;;;;;;18.49;88.44;98188.70;1774994;80;21410;-65
2022/07/30 00:29:42;;;;;;;5.05;3.22;;;;;;;18.49;88.46;98181.92;1774869;80;21049;-65
2022/07/30 00:32:09;;;;;;;8.28;3.00;;;;;;;18.48;88.45;98179.55;1774914;80;21019;-65
2022/07/30 00:34:35;;;;;;;8.78;3.37;;;;;;;18.45;88.50;98180.98;1774890;80;21121;-65
2022/07/30 00:37:02;;;;;;;8.10;3.47;;;;;;;18.42;88.53;98176.23;1774958;80;20977;-65
2022/07/30 00:39:30;;;;;;;4.85;3.08;;;;;;;18.38;88.59;98177.48;1774939;80;21364;-65
2022/07/30 00:42:02;;;;;;;4.50;3.12;;;;;;;18.34;88.67;98177.13;1774968;80;20898;-65
2022/07/30 00:44:29;;;;;;;5.92;3.30;;;;;;;18.30;88.84;98173.52;1774536;80;21422;-66
2022/07/30 00:46:57;;;;;;;5.35;3.40;;;;;;;18.27;88.98;98169.55;1767515;81;21124;-66
2022/07/30 00:52:12;;;;;;;4.80;3.35;;;;;;;18.25;89.24;98169.66;1814942;79;20859;-65
2022/07/30 00:54:41;;;;;;;4.78;3.22;;;;;;;18.21;89.28;98169.52;1816135;79;20907;-65
2022/07/30 00:57:07;;;;;;;7.85;3.10;;;;;;;18.19;89.41;98174.50;1817639;79;20918;-66
2022/07/30 00:59:34;;;;;;;6.10;3.45;;;;;;;18.17;89.53;98174.59;1817596;79;21296;-65
2022/07/30 01:02:02;;;;;;;6.95;3.50;;;;;;;18.12;89.64;98172.09;1817516;79;20867;-66
2022/07/30 01:04:31;;;;;;;7.72;3.37;;;;;;;18.09;89.85;98164.66;1817593;79;21348;-66
2022/07/30 01:06:57;;;;;;;5.28;3.52;;;;;;;18.08;89.94;98169.28;1817484;79;20883;-66
2022/07/30 01:09:25;;;;;;;4.62;3.58;;;;;;;18.08;89.98;98165.77;1817596;79;21242;-66
2022/07/30 01:11:53;;;;;;;7.45;3.60;;;;;;;18.08;90.08;98171.19;1817577;79;21249;-66
2022/07/30 01:14:20;;;;;;;6.45;3.67;;;;;;;18.07;90.18;98161.46;1817433;79;20898;-66
2022/07/30 01:16:48;;;;;;;4.78;3.37;;;;;;;18.09;90.22;98157.88;1817493;79;20954;-66
2022/07/30 01:22:29;;;;;;;7.33;3.50;;;;;;;18.04;90.19;98167.57;1817786;79;20839;-66
2022/07/30 01:25:14;;;;;;;5.97;3.15;;;;;;;17.97;90.32;98155.13;1817489;79;20961;-66
2022/07/30 01:28:03;;;;;;;6.30;3.65;;;;;;;17.92;90.53;98158.84;1817558;79;20887;-65
2022/07/30 01:30:35;;;;;;;4.58;3.20;;;;;;;17.88;90.76;98150.33;1817504;79;20894;-66
2022/07/30 01:33:02;;;;;;;6.95;4.00;;;;;;;17.83;90.95;98152.69;1817596;79;20863;-66
2022/07/30 01:35:32;;;;;;;5.62;3.42;;;;;;;17.79;91.20;98153.12;1817502;79;20902;-66
2022/07/30 01:37:59;;;;;;;6.70;3.20;;;;;;;17.76;91.33;98149.72;1817570;79;21439;-66
2022/07/30 01:40:27;;;;;;;4.50;3.37;;;;;;;17.72;91.48;98153.67;1817468;79;20910;-66
2022/07/30 01:42:57;;;;;;;5.47;3.40;;;;;;;17.70;91.69;98141.03;1817550;79;21545;-66
2022/07/30 01:45:26;;;;;;;5.67;3.37;;;;;;;17.69;91.87;98143.50;1817555;79;20863;-65
2022/07/30 01:47:55;;;;;;;5.87;3.70;;;;;;;17.70;91.99;98141.03;1817499;79;21418;-65
2022/07/30 01:50:23;;;;;;;7.45;3.50;;;;;;;17.72;92.03;98144.19;1822136;78;21364;-66
2022/07/30 01:52:53;;;;;;;8.18;3.50;;;;;;;17.69;92.07;98144.05;1834932;78;20829;-65
2022/07/30 01:55:33;;;;;;;6.55;3.42;;;;;;;17.67;92.19;98137.62;1834108;77;20948;-65
2022/07/30 01:58:03;;;;;;;5.62;3.70;;;;;;;17.68;92.32;98137.06;1834081;77;20829;-66
2022/07/30 02:00:36;;;;;;;5.12;3.27;;;;;;;17.68;92.41;98138.42;1834186;77;21439;-66
2022/07/30 02:03:07;;;;;;;7.70;3.50;;;;;;;17.70;92.44;98141.59;1834008;78;21169;-66
2022/07/30 02:05:34;;;;;;;5.08;3.70;;;;;;;17.69;92.50;98137.28;1833985;78;20868;-66
2022/07/30 02:08:33;;;;;;;5.60;3.42;;;;;;;17.68;92.52;98137.86;1833972;78;20900;-66
2022/07/30 02:11:14;;;;;;;7.65;3.75;;;;;;;17.67;92.61;98132.20;1834086;78;20891;-67
2022/07/30 02:13:49;;;;;;;7.15;3.70;;;;;;;17.63;92.73;98131.30;1834119;78;21349;-66
2022/07/30 02:16:23;;;;;;;8.38;3.95;;;;;;;17.62;92.88;98129.70;1833989;78;21248;-66
2022/07/30 02:19:01;;;;;;;6.00;3.85;;;;;;;17.61;92.98;98128.13;1833931;78;20952;-65
2022/07/30 02:21:36;;;;;;;5.08;3.37;;;;;;;17.60;93.06;98126.53;1811359;78;20916;-66
2022/07/30 02:24:07;;;;;;;3.90;2.87;;;;;;;17.56;93.26;98119.41;1833998;77;21372;-66
2022/07/30 02:26:33;;;;;;;6.03;3.75;;;;;;;17.53;93.41;98119.50;1834127;78;20884;-66
2022/07/30 02:29:01;;;;;;;7.17;3.95;;;;;;;17.55;93.53;98119.96;1834075;77;21080;-66
2022/07/30 02:31:28;;;;;;;9.53;4.05;;;;;;;17.50;93.66;98114.72;1833910;78;20908;-66
2022/07/30 02:33:57;;;;;;;8.45;3.95;;;;;;;17.48;93.87;98117.52;1833974;77;20829;-66
2022/07/30 02:36:27;;;;;;;6.25;3.70;;;;;;;17.44;93.91;98114.70;1834042;77;21413;-66
2022/07/30 02:38:53;;;;;;;10.32;4.03;;;;;;;17.43;94.20;98120.45;1834079;77;20894;-66
2022/07/30 02:41:20;;;;;;;5.83;3.70;;;;;;;17.39;94.38;98126.28;1833966;77;21103;-66
2022/07/30 02:43:48;;;;;;;8.95;4.15;;;;;;;17.36;94.62;98125.02;1833989;78;20959;-66
2022/07/30 02:46:16;;;;;;;5.83;4.05;;;;;;;17.36;94.73;98127.73;1834182;77;21366;-65
2022/07/30 02:49:02;;;;;;;7.45;4.30;;;;;;;17.36;94.80;98129.09;1815012;78;20911;-65
2022/07/30 02:51:29;;;;;;;6.15;3.80;;;;;;;17.34;94.86;98125.92;1835494;77;20912;-65
2022/07/30 02:53:58;;;;;;;7.67;3.77;;;;;;;17.33;95.02;98120.30;1839084;77;20954;-66
2022/07/30 02:56:24;;;;;;;8.20;3.90;;;;;;;17.33;95.03;98116.23;1839765;77;20887;-66
2022/07/30 02:58:51;;;;;;;6.47;3.90;;;;;;;17.32;95.11;98120.05;1839714;78;20861;-66
2022/07/30 03:01:18;;;;;;;6.03;3.75;;;;;;;17.30;95.17;98122.30;1839776;78;20947;-66
2022/07/30 03:03:46;;;;;;;5.85;3.90;;;;;;;17.28;95.15;98122.39;1839738;77;20982;-66
2022/07/30 03:06:14;;;;;;;7.20;3.72;;;;;;;17.26;95.22;98113.27;1839710;77;21061;-66
2022/07/30 03:08:43;;;;;;;7.85;3.47;;;;;;;17.28;95.22;98121.84;1839731;77;21392;-66
2022/07/30 03:11:10;;;;;;;7.78;4.00;;;;;;;17.27;95.28;98116.18;1839695;78;20904;-66
2022/07/30 03:13:40;;;;;;;6.05;3.83;;;;;;;17.28;95.36;98123.75;1839687;78;20840;-66
2022/07/30 03:16:09;;;;;;;5.58;4.15;;;;;;;17.27;95.44;98123.50;1839793;78;21469;-66
2022/07/30 03:18:37;;;;;;;7.50;4.20;;;;;;;17.26;95.38;98125.44;1839795;78;22040;-66
2022/07/30 03:21:07;;;;;;;4.85;3.77;;;;;;;17.26;95.41;98122.73;1839693;77;21430;-66
2022/07/30 03:23:35;;;;;;;8.35;4.10;;;;;;;17.28;95.42;98116.42;1839795;78;20868;-66
2022/07/30 03:26:05;;;;;;;8.15;4.37;;;;;;;17.28;95.33;98119.13;1839681;77;21349;-66
2022/07/30 03:28:36;;;;;;;9.58;4.72;;;;;;;17.28;95.40;98115.08;1839829;78;21387;-66
2022/07/30 03:31:04;;;;;;;6.85;4.55;;;;;;;17.30;95.31;98121.50;1839687;78;21173;-66
2022/07/30 03:33:35;;;;;;;8.45;4.05;;;;;;;17.28;95.27;98117.78;1839626;77;20908;-66
2022/07/30 03:36:02;;;;;;;9.50;3.90;;;;;;;17.29;95.25;98123.41;1839669;77;20868;-66
2022/07/30 03:38:29;;;;;;;5.85;3.42;;;;;;;17.31;95.18;98122.52;1839959;77;21498;-66
2022/07/30 03:40:57;;;;;;;7.45;3.77;;;;;;;17.33;95.19;98122.20;1839751;77;20966;-66
2022/07/30 03:43:26;;;;;;;5.78;3.90;;;;;;;17.35;95.14;98124.81;1839730;77;21510;-66
2022/07/30 03:45:53;;;;;;;6.70;3.87;;;;;;;17.38;95.13;98115.23;1839603;78;20861;-66
2022/07/30 03:48:20;;;;;;;9.13;3.95;;;;;;;17.39;95.03;98116.25;1839767;77;20964;-66
2022/07/30 03:50:47;;;;;;;5.67;3.50;;;;;;;17.43;94.92;98110.98;1839682;77;20958;-65
2022/07/30 03:53:15;;;;;;;9.55;3.75;;;;;;;17.45;94.84;98106.79;1839713;77;21443;-66
2022/07/30 03:56:01;;;;;;;7.37;4.22;;;;;;;17.46;94.71;98109.73;1839921;78;21094;-65
2022/07/30 03:58:36;;;;;;;7.87;4.05;;;;;;;17.46;94.76;98105.68;1835897;77;20869;-66
2022/07/30 04:01:10;;;;;;;;;;;;;;;17.49;94.75;98099.61;1820554;78;21463;-66
2022/07/30 04:03:38;;;;;;;4.87;3.22;;;;;;;17.53;94.66;98104.61;1839718;78;20391;-66
2022/07/30 04:06:06;;;;;;;4.75;3.20;;;;;;;17.52;94.68;98105.72;1839682;78;21045;-66
2022/07/30 04:08:34;;;;;;;7.28;3.98;;;;;;;17.54;94.67;98110.27;1839754;78;21774;-66
2022/07/30 04:11:02;;;;;;;8.08;3.70;;;;;;;17.57;94.62;98110.94;1839588;77;20864;-66
2022/07/30 04:13:49;;;;;;;6.20;3.55;;;;;;;17.62;94.54;98115.36;1836462;77;20959;-66
2022/07/30 04:16:46;;;;;;;6.42;3.80;;;;;;;17.66;94.41;98125.19;1839740;78;20986;-66
2022/07/30 04:19:24;;;;;;;6.75;3.20;;;;;;;17.71;94.34;98123.63;1839658;78;21494;-65
2022/07/30 04:21:53;;;;;;;4.78;3.60;;;;;;;17.76;94.27;98124.78;1817101;78;21056;-66
2022/07/30 04:24:20;;;;;;;12.80;4.00;;;;;;;17.80;94.17;98126.84;1839679;78;21471;-65
2022/07/30 04:26:48;;;;;;;6.53;3.92;;;;;;;17.85;94.05;98119.86;1839708;77;20904;-66
2022/07/30 04:29:16;;;;;;;5.60;3.80;;;;;;;17.88;93.84;98113.75;1839705;77;21006;-66
2022/07/30 04:31:44;;;;;;;5.47;3.65;;;;;;;17.91;93.67;98111.73;1839768;78;20924;-66
2022/07/30 04:34:29;;;;;;;9.23;4.03;;;;;;;17.91;93.42;98119.86;1820353;78;21086;-65
2022/07/30 04:36:57;;;;;;;7.40;4.00;;;;;;;17.92;93.29;98122.81;1817254;78;20982;-65
2022/07/30 04:39:25;;;;;;;17.55;4.20;;;;;;;17.90;93.14;98121.01;1839721;77;20833;-66
2022/07/30 04:41:52;;;;;;;6.03;3.60;;;;;;;17.89;93.14;98120.77;1839688;78;20865;-66
2022/07/30 04:44:20;;;;;;;5.62;3.75;;;;;;;17.88;93.06;98124.59;1825878;78;20967;-66
2022/07/30 04:46:49;;;;;;;5.85;4.30;;;;;;;17.89;93.03;98126.19;1837149;78;21922;-66
2022/07/30 04:49:17;;;;;;;7.37;4.17;;;;;;;17.88;93.05;98135.42;1839553;78;20916;-66
2022/07/30 04:51:44;;;;;;;6.12;3.80;;;;;;;17.89;92.97;98128.34;1842842;77;20900;-66
2022/07/30 04:54:13;;;;;;;6.58;3.95;;;;;;;17.91;92.87;98144.25;1848568;77;21364;-66
2022/07/30 04:56:40;;;;;;;5.90;4.37;;;;;;;17.92;92.97;98133.66;1848509;77;20880;-66
2022/07/30 04:59:09;;;;;;;7.70;4.20;;;;;;;17.97;92.95;98137.52;1848737;77;21439;-66
2022/07/30 05:01:36;;;;;;;7.33;4.20;;;;;;;18.02;93.00;98132.66;1848497;77;20884;-66
2022/07/30 05:04:04;;;;;;;7.55;4.47;;;;;;;18.10;92.91;98128.27;1847545;77;20816;-66
2022/07/30 05:06:31;;;;;;;7.12;4.20;;;;;;;18.17;92.77;98119.03;1836947;77;20868;-66
2022/07/30 05:08:58;;;;;;;7.62;4.03;;;;;;;18.24;92.62;98116.00;1836966;78;20982;-66
2022/07/30 05:11:26;;;;;;;7.62;4.12;;;;;;;18.31;92.51;98109.45;1837041;77;20908;-67
2022/07/30 05:13:53;;;;;;;7.58;4.20;;;;;;;18.37;92.27;98104.02;1836890;78;20853;-66
2022/07/30 05:16:21;;;;;;;9.13;4.65;;;;;;;18.47;92.02;98109.60;1836918;78;20884;-67
2022/07/30 05:18:49;;;;;;;7.20;4.30;;;;;;;18.55;91.76;98112.78;1836930;77;20976;-67
2022/07/30 05:21:18;;;;;;;8.80;4.03;;;;;;;18.64;91.57;98110.74;1836997;77;20967;-66
2022/07/30 05:23:46;;;;;;;9.20;4.47;;;;;;;18.70;91.13;98104.53;1837098;78;21011;-67
2022/07/30 05:26:20;;;;;;;8.55;4.20;;;;;;;18.78;91.03;98105.77;1836953;77;21545;-66
2022/07/30 05:28:48;;;;;;;7.65;4.12;;;;;;;18.88;90.85;98102.59;1836917;78;20892;-65
2022/07/30 05:31:15;;;;;;;6.00;3.83;;;;;;;18.96;90.42;98092.75;1837000;78;20873;-65
2022/07/30 05:33:46;;;;;;;5.45;3.85;;;;;;;19.02;89.80;98092.17;1837086;77;20888;-65
2022/07/30 05:36:15;;;;;;;10.30;4.00;;;;;;;19.10;89.54;98091.82;1837032;78;21705;-65
2022/07/30 05:38:41;;;;;;;5.85;3.60;;;;;;;19.18;89.27;98090.88;1836865;78;20860;-66
2022/07/30 05:41:20;;;;;;;7.67;3.58;;;;;;;19.27;88.78;98090.73;1836912;78;20950;-65
2022/07/30 05:44:07;;;;;;;11.38;3.80;;;;;;;19.37;88.05;98093.00;1836750;78;21509;-65
2022/07/30 05:46:35;;;;;;;4.20;3.40;;;;;;;19.43;87.04;98087.56;1837051;78;20903;-67
2022/07/30 05:49:09;;;;;;;7.83;3.73;;;;;;;19.50;86.03;98090.48;1837282;77;21018;-68
2022/07/30 05:51:35;;;;;;;7.05;3.70;;;;;;;19.57;85.27;98096.11;1836801;77;20920;-67
2022/07/30 05:54:03;;;;;;;6.40;3.37;;;;;;;19.61;84.36;98099.70;1833743;78;20928;-67
2022/07/30 05:56:31;;;;;;;10.35;3.60;;;;;;;19.67;83.91;98096.95;1785429;78;21407;-67
2022/07/30 05:59:16;;;;;;;4.05;3.17;;;;;;;19.78;83.78;98098.05;1828967;78;21363;-67
2022/07/30 06:02:03;;;;;;;6.10;3.27;;;;;;;19.86;83.25;98091.66;1824040;78;21873;-67
2022/07/30 06:04:34;;;;;;;8.03;3.50;;;;;;;19.96;82.95;98087.64;1827437;77;38575;-67
2022/07/30 06:07:02;;;;;;;6.80;3.27;;;;;;;20.06;82.23;98090.64;1825276;78;20922;-67
2022/07/30 06:09:29;;;;;;;7.85;3.52;;;;;;;20.15;81.19;98084.47;1821672;78;20974;-67
2022/07/30 06:11:56;;;;;;;6.03;3.00;;;;;;;20.27;80.43;98080.34;1812462;78;21523;-67
2022/07/30 06:14:23;;;;;;;7.03;3.20;;;;;;;20.37;79.39;98087.95;1797097;79;21068;-67
2022/07/30 06:16:50;;;;;;;8.88;3.47;;;;;;;20.49;78.71;98074.05;1797136;79;21500;-67
2022/07/30 06:19:18;;;;;;;8.48;3.15;;;;;;;20.58;77.29;98074.66;1815331;78;20996;-67
2022/07/30 06:21:45;;;;;;;6.72;2.80;;;;;;;20.67;76.87;98072.53;1780262;80;20884;-67
2022/07/30 06:24:14;;;;;;;5.92;3.00;;;;;;;20.73;75.84;98065.09;1800576;78;21344;-66
2022/07/30 06:26:51;;;;;;;4.65;2.58;;;;;;;20.83;74.97;98072.72;1843286;77;21114;-66
2022/07/30 06:29:20;;;;;;;4.37;2.80;;;;;;;20.92;74.02;98071.16;1830776;77;20923;-66
2022/07/30 06:31:53;;;;;;;5.65;3.00;;;;;;;21.01;73.14;98066.29;1835703;78;21360;-65
2022/07/30 06:34:20;;;;;;;8.70;3.75;;;;;;;21.10;72.07;98066.93;1823049;78;20958;-67
2022/07/30 06:36:47;;;;;;;8.73;3.42;;;;;;;21.17;71.66;98071.17;1816797;79;20997;-65
2022/07/30 06:39:17;;;;;;;4.05;2.85;;;;;;;21.22;71.72;98061.33;1824740;78;21334;-66
2022/07/30 06:41:51;;;;;;;6.62;3.27;;;;;;;21.30;71.53;98068.52;1796485;78;20905;-66
2022/07/30 06:44:18;;;;;;;6.33;3.40;;;;;;;21.37;71.59;98070.02;1842826;78;20902;-66
2022/07/30 06:46:54;;;;;;;4.12;2.90;;;;;;;21.46;71.33;98071.95;1825466;78;20958;-68
2022/07/30 06:49:23;;;;;;;9.88;3.60;;;;;;;21.55;71.11;98067.06;1822285;77;20979;-67
2022/07/30 06:51:50;;;;;;;7.65;3.67;;;;;;;21.60;70.13;98066.78;1832252;78;21302;-67
2022/07/30 06:54:16;;;;;;;7.28;3.30;;;;;;;21.66;70.56;98058.54;1809334;79;20926;-66
2022/07/30 06:56:57;;;;;;;5.00;3.62;;;;;;;21.76;70.66;98059.30;1810285;79;20997;-66
2022/07/30 06:59:26;;;;;;;6.00;3.33;;;;;;;21.86;70.66;98062.63;1810170;79;20871;-68
2022/07/30 07:02:15;;;;;;;9.00;3.50;;;;;;;21.92;69.88;98051.63;1810213;79;20887;-66
2022/07/30 07:04:55;;;;;;;4.97;3.72;;;;;;;21.96;69.37;98049.74;1809318;79;21293;-66
2022/07/30 07:07:23;;;;;;;10.18;4.20;;;;;;;22.00;69.69;98045.92;1810078;79;20890;-66
2022/07/30 07:09:49;;;;;;;7.58;4.15;;;;;;;22.05;69.61;98043.47;1810259;79;20969;-66
2022/07/30 07:12:34;;;;;;;5.47;3.58;;;;;;;22.10;69.79;98043.17;1810646;79;21481;-65
2022/07/30 07:15:04;;;;;;;6.12;3.85;;;;;;;22.18;69.39;98045.67;1811882;79;20914;-66
2022/07/30 07:17:31;;;;;;;7.67;3.42;;;;;;;22.25;68.96;98042.27;1812036;79;21178;-66
2022/07/30 07:19:59;;;;;;;5.37;3.67;;;;;;;22.32;68.55;98042.38;1811924;79;20982;-67
2022/07/30 07:22:26;;;;;;;10.48;3.90;;;;;;;22.39;68.33;98041.13;1810573;79;20926;-66
2022/07/30 07:24:52;;;;;;;8.15;4.00;;;;;;;22.48;68.25;98041.09;1810482;79;20938;-66
2022/07/30 07:27:21;;;;;;;6.15;4.08;;;;;;;22.56;68.26;98043.36;1810239;79;20962;-66
2022/07/30 07:29:49;;;;;;;8.30;4.40;;;;;;;22.67;68.85;98038.86;1810120;79;21035;-66
2022/07/30 07:32:15;;;;;;;6.10;4.10;;;;;;;22.77;68.18;98036.88;1811132;79;20882;-67
2022/07/30 07:34:42;;;;;;;7.10;3.60;;;;;;;22.81;66.63;98037.70;1810807;79;21458;-66
2022/07/30 07:37:09;;;;;;;11.73;3.65;;;;;;;22.87;66.55;98037.58;1811422;79;21480;-68
2022/07/30 07:39:37;;;;;;;6.62;3.60;;;;;;;22.90;66.56;98038.22;1812119;79;21028;-66
2022/07/30 07:42:05;;;;;;;8.13;3.85;;;;;;;22.95;66.78;98035.17;1812003;79;21236;-66
2022/07/30 07:44:32;;;;;;;8.88;3.90;;;;;;;23.02;66.37;98040.72;1811919;79;20922;-66
2022/07/30 07:47:00;;;;;;;7.03;4.03;;;;;;;23.09;66.53;98044.13;1811219;79;20989;-67
2022/07/30 07:49:29;;;;;;;9.38;3.62;;;;;;;23.16;66.22;98037.38;1811868;79;20966;-66
2022/07/30 07:51:58;;;;;;;10.13;3.83;;;;;;;23.25;66.72;98037.12;1814509;77;20926;-68
2022/07/30 07:54:24;;;;;;;6.62;3.62;;;;;;;23.35;66.60;98043.30;1837156;78;21691;-67
2022/07/30 07:56:56;;;;;;;6.78;3.20;;;;;;;23.43;66.15;98040.88;1835457;78;20873;-68
2022/07/30 07:59:24;;;;;;;8.53;3.52;;;;;;;23.49;64.14;98042.10;1836621;78;21395;-68
2022/07/30 08:01:51;;;;;;;9.00;3.37;;;;;;;23.53;63.48;98040.98;1837045;78;20849;-67
2022/07/30 08:04:25;;;;;;;5.55;3.15;;;;;;;23.59;61.88;98033.23;1811004;78;20907;-67
2022/07/30 08:07:12;;;;;;;9.78;3.50;;;;;;;23.63;62.08;98032.12;1835207;78;21431;-67
2022/07/30 08:09:58;;;;;;;7.37;3.77;;;;;;;23.71;62.74;98035.72;1836984;78;20908;-67
2022/07/30 08:12:30;;;;;;;7.85;3.37;;;;;;;23.80;63.48;98027.99;1834855;78;20955;-68
2022/07/30 08:15:09;;;;;;;6.58;2.70;;;;;;;23.88;63.43;98028.28;1796383;78;20963;-67
2022/07/30 08:17:44;;;;;;;9.08;2.72;;;;;;;23.95;61.00;98023.45;1833101;78;21074;-68
2022/07/30 08:20:13;;;;;;;6.78;3.05;;;;;;;24.00;61.65;98028.59;1805070;79;21165;-66
2022/07/30 08:22:40;;;;;;;7.17;2.95;;;;;;;24.05;61.11;98029.01;1811759;78;21478;-66
2022/07/30 08:25:09;;;;;;;8.68;3.15;;;;;;;24.08;61.47;98028.30;1837082;78;21451;-66
2022/07/30 08:27:36;;;;;;;4.75;2.45;;;;;;;24.15;62.59;98028.35;1837022;78;21039;-66
2022/07/30 08:30:05;;;;;;;11.12;2.92;;;;;;;24.26;61.92;98022.38;1803580;78;20864;-67
2022/07/30 08:32:33;;;;;;;5.10;2.75;;;;;;;24.37;60.40;98027.37;1835153;78;21117;-67
2022/07/30 08:35:02;;;;;;;8.08;3.10;;;;;;;24.47;60.79;98026.64;1837019;78;20916;-65
2022/07/30 08:37:30;;;;;;;5.58;3.20;;;;;;;24.56;60.64;98026.33;1831409;77;20930;-66
2022/07/30 08:39:57;;;;;;;4.70;2.87;;;;;;;24.65;60.84;98024.63;1817186;79;21549;-67
2022/07/30 08:42:23;;;;;;;6.28;2.65;;;;;;;24.72;60.34;98020.56;1817044;78;21440;-68
2022/07/30 08:44:52;;;;;;;7.95;2.72;;;;;;;24.77;58.81;98019.66;1817098;78;21104;-66
2022/07/30 08:47:22;;;;;;;4.30;2.83;;;;;;;24.84;59.18;98009.31;1816850;79;21533;-67
2022/07/30 08:49:52;;;;;;;6.70;2.83;;;;;;;24.93;58.56;98011.91;1799247;78;20895;-67
2022/07/30 08:52:20;;;;;;;7.65;2.72;;;;;;;25.03;57.09;98010.40;1825742;77;22496;-67
2022/07/30 08:54:48;;;;;;;4.75;2.67;;;;;;;25.12;56.30;98016.30;1840923;77;20904;-67
2022/07/30 08:57:15;;;;;;;5.45;2.70;;;;;;;25.23;56.51;98011.65;1843731;77;21313;-66
2022/07/30 08:59:43;;;;;;;9.40;2.72;;;;;;;25.32;57.25;98012.07;1845453;77;21019;-67
2022/07/30 09:02:09;;;;;;;12.70;3.00;;;;;;;25.43;57.23;98003.31;1843789;77;21491;-66
2022/07/30 09:04:39;;;;;;;9.93;2.98;;;;;;;25.56;56.27;98008.66;1803998;79;20931;-67
2022/07/30 09:07:06;;;;;;;4.40;2.60;;;;;;;25.63;55.72;98006.52;1775647;80;20873;-67
2022/07/30 09:09:33;;;;;;;8.35;2.72;;;;;;;25.65;54.92;97998.09;1803896;79;21215;-68
2022/07/30 09:12:06;;;;;;;8.58;2.92;;;;;;;25.67;55.75;97996.36;1750310;81;20873;-66
2022/07/30 09:14:34;;;;;;;6.12;2.62;;;;;;;25.70;55.95;97994.98;1751398;80;21002;-66
2022/07/30 09:17:00;;;;;;;5.35;2.60;;;;;;;25.78;54.77;97994.41;1771049;80;21060;-67
2022/07/30 09:19:28;;;;;;;5.97;2.80;;;;;;;25.81;54.76;97984.80;1767405;81;21444;-68
2022/07/30 09:21:58;;;;;;;8.45;3.12;;;;;;;25.87;55.44;97978.92;1767183;81;21543;-66
2022/07/30 09:24:27;;;;;;;8.05;2.85;;;;;;;25.90;55.55;97974.04;1757398;81;20972;-67
2022/07/30 09:27:10;;;;;;;5.85;2.70;;;;;;;25.97;55.43;97974.83;1723413;82;20969;-65
2022/07/30 09:29:58;;;;;;;7.45;2.55;;;;;;;26.02;55.90;97966.22;1745129;81;21043;-65
2022/07/30 09:32:50;;;;;;;11.53;2.80;;;;;;;26.11;55.11;97968.59;1767682;81;20996;-68
2022/07/30 09:35:26;;;;;;;6.20;2.60;;;;;;;26.23;54.74;97959.95;1769563;81;21071;-66
2022/07/30 09:38:03;;;;;;;;;;;;;;;26.23;54.74;97959.95;1725570;81;20989;-66
2022/07/30 09:40:52;;;;;;;6.17;2.33;;;;;;;26.34;53.87;97962.09;1742224;82;20075;-66
2022/07/30 09:43:30;;;;;;;7.75;2.30;;;;;;;26.42;53.70;97970.53;1744042;82;20904;-66
2022/07/30 09:46:00;;;;;;;8.38;2.33;;;;;;;26.48;52.54;97956.58;1766593;81;21413;-67
2022/07/30 09:51:06;;;;;;;5.65;2.30;;;;;;;26.62;52.92;97948.31;1774492;81;20869;-66
2022/07/30 09:53:35;;;;;;;6.05;2.25;;;;;;;26.69;51.16;97943.37;1775604;80;20901;-67
2022/07/30 09:56:23;;;;;;;6.53;2.20;;;;;;;26.77;50.58;97947.12;1740083;80;20948;-66
2022/07/30 09:58:52;;;;;;;4.47;2.02;;;;;;;26.77;50.58;97947.12;1778507;79;21268;-67
2022/07/30 10:01:20;;;;;;;6.90;2.05;;;;;;;26.80;50.17;97953.21;1774196;81;21118;-66
2022/07/30 10:03:54;;;;;;;4.75;2.30;;;;;;;26.85;50.24;97953.39;1774366;81;20908;-66
2022/07/30 10:06:36;;;;;;;5.28;2.05;;;;;;;26.91;49.95;97953.95;1750983;80;20857;-66
2022/07/30 10:09:06;;;;;;;3.55;2.00;;;;;;;26.94;49.96;97950.41;1803529;78;20900;-67
2022/07/30 10:11:34;;;;;;;5.22;2.20;;;;;;;27.02;48.69;97955.27;1802736;79;20872;-67
2022/07/30 10:14:01;;;;;;;3.15;1.70;;;;;;;27.03;48.95;97949.39;1802730;79;21223;-67
2022/07/30 10:16:29;;;;;;;3.83;2.12;;;;;;;27.09;48.77;97953.28;1802540;79;20992;-66
2022/07/30 10:19:06;;;;;;;3.62;2.25;;;;;;;27.14;49.36;97947.37;1824494;78;20877;-67
2022/07/30 10:21:33;;;;;;;6.92;2.30;;;;;;;27.19;49.09;97935.75;1829899;78;20873;-67
2022/07/30 10:24:19;;;;;;;4.10;2.12;;;;;;;27.22;49.22;97935.75;1825639;78;20917;-66
2022/07/30 10:27:04;;;;;;;8.25;2.05;;;;;;;27.27;48.87;97933.17;1799712;79;21867;-64
2022/07/30 10:29:52;;;;;;;7.17;2.67;;;;;;;27.30;49.59;97925.50;1689522;83;20956;-65
2022/07/30 10:32:18;;;;;;;6.30;2.37;;;;;;;27.34;50.59;97925.67;1711244;83;21482;-66
2022/07/30 10:34:46;;;;;;;3.87;2.50;;;;;;;27.38;49.61;97917.41;1703281;81;20944;-67
2022/07/30 10:37:17;;;;;;;6.25;2.55;;;;;;;27.38;49.49;97921.54;1762757;79;21425;-66
2022/07/30 10:39:48;;;;;;;8.83;2.40;;;;;;;27.35;48.60;97912.68;1768833;80;21226;-66
2022/07/30 10:42:45;;;;;;;12.00;2.52;;;;;;;27.32;49.47;97921.14;1773992;79;20919;-67
2022/07/30 10:45:23;;;;;;;6.60;2.67;;;;;;;27.33;50.33;97914.47;1774359;81;20963;-65
2022/07/30 10:47:50;;;;;;;16.02;2.87;;;;;;;27.40;50.39;97910.91;1774226;81;20916;-66
2022/07/30 10:50:21;;;;;;;4.25;2.58;;;;;;;27.43;49.99;97916.41;1774224;81;20916;-67
2022/07/30 10:52:59;;;;;;;7.53;2.95;;;;;;;27.50;50.92;97910.08;1774746;81;21064;-65
2022/07/30 10:55:34;;;;;;;5.05;2.70;;;;;;;27.63;50.66;97899.55;1774185;81;20877;-68
2022/07/30 10:58:11;;;;;;;4.53;2.60;;;;;;;27.73;50.14;97906.95;1774603;81;21396;-66
2022/07/30 11:00:57;;;;;;;3.27;2.17;;;;;;;27.80;50.35;97907.48;1774326;81;20995;-66
2022/07/30 11:03:29;;;;;;;7.62;2.50;;;;;;;27.82;49.37;97892.72;1774292;81;20935;-68
2022/07/30 11:06:19;;;;;;;5.65;2.50;;;;;;;27.83;48.70;97903.94;1774336;81;21762;-67
2022/07/30 11:08:47;;;;;;;3.75;2.52;;;;;;;27.80;48.53;97894.52;1774186;81;20915;-64
2022/07/30 11:11:27;;;;;;;3.47;2.15;;;;;;;27.84;49.16;97899.22;1774431;80;20923;-66
2022/07/30 11:14:01;;;;;;;10.68;2.72;;;;;;;27.96;49.21;97895.97;1774280;81;20962;-68
2022/07/30 11:16:41;;;;;;;5.12;2.70;;;;;;;28.10;48.96;97888.99;1775236;79;20864;-64
2022/07/30 11:19:16;;;;;;;5.62;2.70;;;;;;;28.16;47.88;97892.27;1792572;79;21105;-67
2022/07/30 11:21:46;;;;;;;6.78;2.62;;;;;;;28.10;48.24;97886.23;1803579;79;20980;-65
2022/07/30 11:24:42;;;;;;;5.25;2.58;;;;;;;28.10;48.67;97883.48;1781381;79;20932;-66
2022/07/30 11:27:35;;;;;;;8.23;2.98;;;;;;;28.13;48.52;97872.42;1797320;79;20849;-69
2022/07/30 11:30:07;;;;;;;3.72;2.95;;;;;;;28.24;48.90;97868.95;1803580;79;20936;-66
2022/07/30 11:32:35;;;;;;;4.85;3.10;;;;;;;28.37;48.96;97860.97;1785011;79;21223;-67
2022/07/30 11:35:28;;;;;;;6.83;2.42;;;;;;;28.56;49.95;97855.44;1803580;79;20920;-66
2022/07/30 11:38:14;;;;;;;6.03;2.70;;;;;;;28.75;48.29;97858.97;1803607;79;20880;-65
2022/07/30 11:40:51;;;;;;;6.17;2.80;;;;;;;28.96;48.48;97857.31;1803643;79;20876;-68
2022/07/30 11:43:35;;;;;;;6.70;2.83;;;;;;;29.15;46.67;97840.12;1803692;79;20881;-69
2022/07/30 11:46:11;;;;;;;7.37;2.62;;;;;;;29.28;48.00;97855.53;1803656;79;21214;-67
2022/07/30 11:48:58;;;;;;;4.42;3.25;;;;;;;29.45;47.03;97857.22;1803686;79;20900;-66
2022/07/30 11:51:25;;;;;;;6.33;3.37;;;;;;;29.58;46.35;97855.45;1803545;79;20976;-66
2022/07/30 11:54:05;;;;;;;6.37;3.02;;;;;;;29.76;46.96;97852.61;1803565;79;20963;-68
2022/07/30 11:56:32;;;;;;;7.08;2.30;;;;;;;29.86;46.29;97851.47;1803827;79;20944;-68
2022/07/30 11:59:10;;;;;;;4.55;2.55;;;;;;;29.90;44.86;97852.17;1781452;79;20904;-69
2022/07/30 12:01:44;;;;;;;3.45;2.40;;;;;;;29.89;45.03;97849.25;1803480;79;20960;-66